Time;durP1;ratioP1;P1;durP2;ratioP2;P2;SDS_P1;SDS_P2;PMS_P1;PMS_P2;Temp;Humidity;BMP_temperature;BMP_pressure;BME280_temperature;BME280_humidity;BME280_pressure;Samples;Min_cycle;Max_cycle;Signal;HPM_P1;HPM_P2
2023/07/14 00:01:17;;;;;;;4.78;2.58;;;;;;;17.75;100.00;97646.25;5030995;28;20466;-69
2023/07/14 00:03:43;;;;;;;3.58;2.30;;;;;;;17.78;100.00;97644.91;5030772;28;20391;-70
2023/07/14 00:06:13;;;;;;;5.10;2.38;;;;;;;17.78;100.00;97648.38;5031671;28;20426;-70
2023/07/14 00:08:40;;;;;;;3.72;2.50;;;;;;;17.81;100.00;97649.69;5031985;28;20411;-70
2023/07/14 00:11:12;;;;;;;3.30;2.03;;;;;;;17.80;100.00;97648.09;5030787;28;20811;-70
2023/07/14 00:13:38;;;;;;;2.95;2.20;;;;;;;17.79;100.00;97638.47;5030723;28;20742;-70
2023/07/14 00:16:11;;;;;;;3.33;2.33;;;;;;;17.79;100.00;97638.47;5038677;28;20410;-70
2023/07/14 00:18:37;;;;;;;4.25;2.42;;;;;;;17.76;100.00;97636.34;5030552;28;20928;-70
2023/07/14 00:21:03;;;;;;;3.72;2.33;;;;;;;17.71;100.00;97637.25;5030657;28;20494;-70
2023/07/14 00:23:31;;;;;;;4.17;3.00;;;;;;;17.67;100.00;97640.75;5030383;28;20411;-70
2023/07/14 00:25:57;;;;;;;3.08;2.17;;;;;;;17.65;100.00;97633.03;5072075;22;20437;-69
2023/07/14 00:28:23;;;;;;;3.77;2.33;;;;;;;17.64;100.00;97630.66;5089901;28;20424;-69
2023/07/14 00:30:49;;;;;;;3.70;2.25;;;;;;;17.63;100.00;97634.41;5089488;28;20483;-69
2023/07/14 00:33:17;;;;;;;3.85;2.22;;;;;;;17.64;100.00;97636.81;5075532;28;20976;-69
2023/07/14 00:35:45;;;;;;;4.15;2.30;;;;;;;17.64;100.00;97628.78;5069809;28;20541;-69
2023/07/14 00:38:11;;;;;;;2.75;2.13;;;;;;;17.62;100.00;97624.78;5070458;28;20761;-69
2023/07/14 00:40:41;;;;;;;3.58;2.40;;;;;;;17.59;100.00;97620.00;5070165;28;20407;-69
2023/07/14 00:43:14;;;;;;;4.97;2.58;;;;;;;17.55;100.00;97635.84;5073239;28;20417;-68
2023/07/14 00:45:41;;;;;;;6.15;2.47;;;;;;;17.53;100.00;97629.16;5070426;28;20931;-69
2023/07/14 00:48:08;;;;;;;4.00;2.80;;;;;;;17.52;100.00;97631.03;5070226;28;20881;-69
2023/07/14 00:50:40;;;;;;;2.90;2.20;;;;;;;17.51;100.00;97624.13;5070131;28;20404;-69
2023/07/14 00:53:13;;;;;;;3.15;1.90;;;;;;;17.51;100.00;97623.31;5070149;28;20448;-69
2023/07/14 00:55:45;;;;;;;3.60;2.30;;;;;;;17.53;100.00;97618.47;5077906;28;20404;-69
2023/07/14 00:58:18;;;;;;;4.10;2.50;;;;;;;17.55;100.00;97614.41;5070362;28;20427;-69
2023/07/14 01:01:04;;;;;;;3.25;2.20;;;;;;;17.57;100.00;97624.84;5070039;28;20432;-69
2023/07/14 01:03:31;;;;;;;3.57;2.47;;;;;;;17.55;100.00;97613.63;5050289;28;20423;-69
2023/07/14 01:06:02;;;;;;;4.20;2.30;;;;;;;17.55;100.00;97616.28;5070087;28;20415;-69
2023/07/14 01:08:30;;;;;;;5.17;2.40;;;;;;;17.53;100.00;97610.44;5070100;28;20423;-69
2023/07/14 01:10:58;;;;;;;4.85;2.35;;;;;;;17.52;100.00;97612.31;5070019;28;20407;-69
2023/07/14 01:13:26;;;;;;;3.85;2.45;;;;;;;17.49;100.00;97607.56;5069859;28;20400;-69
2023/07/14 01:15:53;;;;;;;4.07;2.38;;;;;;;17.46;100.00;97608.13;5077365;28;20419;-69
2023/07/14 01:18:20;;;;;;;5.53;2.67;;;;;;;17.44;100.00;97614.88;5069797;28;20404;-69
2023/07/14 01:20:46;;;;;;;4.97;2.40;;;;;;;17.40;100.00;97607.41;5069855;28;20422;-69
2023/07/14 01:23:39;;;;;;;4.00;2.30;;;;;;;17.37;100.00;97613.31;5069755;28;20466;-69
2023/07/14 01:26:19;;;;;;;3.75;2.40;;;;;;;17.34;100.00;97607.75;5076480;28;20481;-69
2023/07/14 01:28:47;;;;;;;4.38;2.60;;;;;;;17.29;100.00;97610.53;5069894;28;20936;-69
2023/07/14 01:31:18;;;;;;;4.15;2.42;;;;;;;17.29;100.00;97605.16;5052396;28;20986;-69
2023/07/14 01:33:44;;;;;;;4.20;2.50;;;;;;;17.28;100.00;97604.38;5069563;28;20400;-69
2023/07/14 01:36:11;;;;;;;6.05;2.50;;;;;;;17.23;100.00;97607.09;5075953;28;20412;-69
2023/07/14 01:38:38;;;;;;;4.47;2.25;;;;;;;17.17;100.00;97602.91;5069724;28;20418;-69
2023/07/14 01:41:06;;;;;;;3.28;2.50;;;;;;;17.11;100.00;97592.56;5069704;28;20893;-69
2023/07/14 01:43:33;;;;;;;2.90;2.55;;;;;;;17.07;100.00;97588.84;5070641;28;20412;-69
2023/07/14 01:46:06;;;;;;;4.43;2.75;;;;;;;17.05;100.00;97591.03;5076107;28;20419;-69
2023/07/14 01:48:37;;;;;;;3.25;2.53;;;;;;;17.00;100.00;97584.66;5080435;28;20430;-69
2023/07/14 01:51:08;;;;;;;3.15;2.42;;;;;;;16.95;100.00;97587.41;5073324;28;20781;-69
2023/07/14 01:53:40;;;;;;;4.07;2.47;;;;;;;16.90;100.00;97581.34;5074026;28;20494;-69
2023/07/14 01:56:09;;;;;;;4.35;2.53;;;;;;;16.87;100.00;97581.91;5073241;28;20388;-70
2023/07/14 01:58:43;;;;;;;4.68;2.50;;;;;;;16.78;100.00;97584.41;5079045;28;20910;-68
2023/07/14 02:01:12;;;;;;;4.18;2.60;;;;;;;16.75;100.00;97587.66;5073161;28;20407;-68
2023/07/14 02:03:41;;;;;;;3.22;2.35;;;;;;;16.72;100.00;97585.56;5076045;28;20832;-69
2023/07/14 02:06:07;;;;;;;3.90;2.50;;;;;;;16.72;100.00;97582.06;5073087;28;20463;-69
2023/07/14 02:08:33;;;;;;;3.35;2.60;;;;;;;16.70;100.00;97579.69;5077936;28;20413;-69
2023/07/14 02:11:00;;;;;;;5.30;2.67;;;;;;;16.69;100.00;97580.75;5072996;28;20921;-69
2023/07/14 02:13:27;;;;;;;4.57;2.90;;;;;;;16.67;100.00;97579.47;5072718;28;20399;-69
2023/07/14 02:15:54;;;;;;;11.88;3.22;;;;;;;16.62;100.00;97573.09;5072858;28;20400;-69
2023/07/14 02:18:25;;;;;;;5.18;2.97;;;;;;;16.58;100.00;97576.59;5077618;28;20409;-69
2023/07/14 02:20:53;;;;;;;3.88;2.80;;;;;;;16.53;100.00;97571.31;5072887;28;20403;-69
2023/07/14 02:23:22;;;;;;;5.25;2.92;;;;;;;16.51;100.00;97568.94;5072614;28;20901;-69
2023/07/14 02:26:04;;;;;;;5.00;2.60;;;;;;;16.47;100.00;97577.78;5072439;28;20487;-69
2023/07/14 02:28:30;;;;;;;4.93;2.90;;;;;;;16.44;100.00;97573.81;5077854;28;20767;-69
2023/07/14 02:31:04;;;;;;;3.15;2.50;;;;;;;16.43;100.00;97572.22;5072715;28;20404;-69
2023/07/14 02:33:35;;;;;;;4.35;2.45;;;;;;;16.39;100.00;97573.84;5072434;28;20396;-69
2023/07/14 02:36:13;;;;;;;3.77;2.80;;;;;;;16.33;100.00;97568.84;5072591;28;20392;-69
2023/07/14 02:38:40;;;;;;;3.53;2.50;;;;;;;16.32;100.00;97568.03;5076706;28;20488;-69
2023/07/14 02:41:12;;;;;;;3.80;2.70;;;;;;;16.31;100.00;97563.00;5072483;28;20799;-69
2023/07/14 02:43:38;;;;;;;4.20;2.78;;;;;;;16.32;100.00;97570.72;5072204;28;20420;-69
2023/07/14 02:46:12;;;;;;;4.38;2.80;;;;;;;16.29;100.00;97565.97;5072586;28;20404;-69
2023/07/14 02:48:42;;;;;;;8.30;3.00;;;;;;;16.26;100.00;97574.53;5077244;28;20408;-69
2023/07/14 02:51:09;;;;;;;5.47;2.80;;;;;;;16.22;100.00;97558.28;5072155;28;20418;-69
2023/07/14 02:53:35;;;;;;;4.32;2.85;;;;;;;16.18;100.00;97557.25;5071849;28;20414;-69
2023/07/14 02:56:02;;;;;;;6.13;3.20;;;;;;;16.17;100.00;97558.31;5075157;28;20406;-69
2023/07/14 02:58:28;;;;;;;8.77;3.20;;;;;;;16.16;100.00;97561.28;5073352;28;20415;-69
2023/07/14 03:00:54;;;;;;;4.15;3.00;;;;;;;16.12;100.00;97561.03;5071716;28;20399;-69
2023/07/14 03:03:20;;;;;;;3.45;2.83;;;;;;;16.10;100.00;97560.53;5071939;28;20502;-69
2023/07/14 03:05:49;;;;;;;4.07;2.88;;;;;;;16.09;100.00;97556.25;5072142;28;20435;-69
2023/07/14 03:08:16;;;;;;;4.10;3.03;;;;;;;16.08;100.00;97560.03;5068513;28;20745;-68
2023/07/14 03:10:43;;;;;;;5.20;3.10;;;;;;;16.06;100.00;97556.84;5071909;28;20411;-69
2023/07/14 03:13:09;;;;;;;6.95;3.20;;;;;;;16.05;100.00;97554.44;5071858;28;20487;-69
2023/07/14 03:15:36;;;;;;;7.72;3.13;;;;;;;16.02;100.00;97545.09;5071698;28;20521;-70
2023/07/14 03:18:02;;;;;;;4.72;3.25;;;;;;;16.00;100.00;97544.63;5075919;28;20416;-69
2023/07/14 03:20:29;;;;;;;5.88;3.13;;;;;;;15.99;100.00;97542.22;5071571;28;20870;-69
2023/07/14 03:22:56;;;;;;;3.90;3.38;;;;;;;15.94;100.00;97543.06;5071227;28;20936;-69
2023/07/14 03:25:23;;;;;;;7.82;3.30;;;;;;;15.93;100.00;97538.81;5076026;28;20416;-69
2023/07/14 03:27:49;;;;;;;4.78;3.33;;;;;;;15.91;100.00;97535.63;5075470;28;20500;-69
2023/07/14 03:30:15;;;;;;;7.07;3.40;;;;;;;15.91;100.00;97537.50;5071521;28;20474;-69
2023/07/14 03:32:42;;;;;;;5.53;3.77;;;;;;;15.94;100.00;97532.38;5071287;28;20411;-69
2023/07/14 03:35:09;;;;;;;5.93;3.63;;;;;;;15.95;100.00;97533.97;5071263;28;20399;-69
2023/07/14 03:37:35;;;;;;;4.65;3.60;;;;;;;15.98;100.00;97537.97;5075449;28;20403;-69
2023/07/14 03:40:05;;;;;;;3.92;3.17;;;;;;;15.97;100.00;97534.50;5071189;28;20468;-69
2023/07/14 03:42:31;;;;;;;6.53;4.00;;;;;;;15.95;100.00;97523.28;5070975;28;20419;-69
2023/07/14 03:44:57;;;;;;;4.70;3.00;;;;;;;15.96;100.00;97529.44;5070853;28;20749;-69
2023/07/14 03:47:23;;;;;;;3.75;3.13;;;;;;;15.94;100.00;97523.59;5070945;28;20407;-69
2023/07/14 03:49:49;;;;;;;4.93;3.45;;;;;;;15.96;100.00;97522.22;5067708;28;20495;-69
2023/07/14 03:52:16;;;;;;;4.97;3.60;;;;;;;15.97;100.00;97523.00;5073448;28;20402;-69
2023/07/14 03:54:42;;;;;;;3.85;3.10;;;;;;;15.97;100.00;97518.47;5067874;28;20502;-69
2023/07/14 03:57:09;;;;;;;6.28;3.30;;;;;;;15.97;100.00;97521.13;5044347;28;20424;-69
2023/07/14 03:59:35;;;;;;;4.15;3.05;;;;;;;15.96;100.00;97524.88;5059612;28;20500;-69
2023/07/14 04:02:02;;;;;;;5.05;3.47;;;;;;;15.99;100.00;97520.88;5068192;28;20496;-69
2023/07/14 04:04:29;;;;;;;4.50;3.30;;;;;;;15.99;100.00;97518.19;5070622;28;20396;-69
2023/07/14 04:06:55;;;;;;;5.13;3.70;;;;;;;16.03;100.00;97529.88;5074552;28;20412;-69
2023/07/14 04:09:21;;;;;;;3.92;3.20;;;;;;;16.04;100.00;97520.81;5064574;28;20411;-69
2023/07/14 04:11:47;;;;;;;3.85;3.20;;;;;;;16.07;100.00;97523.72;5063862;28;20897;-69
2023/07/14 04:14:16;;;;;;;4.60;3.33;;;;;;;16.11;100.00;97524.72;5069775;28;20418;-70
2023/07/14 04:16:42;;;;;;;3.77;3.00;;;;;;;16.13;100.00;97527.91;5075102;28;20468;-69
2023/07/14 04:19:09;;;;;;;3.95;3.13;;;;;;;16.18;100.00;97532.41;5068626;28;20738;-69
2023/07/14 04:21:35;;;;;;;4.78;3.53;;;;;;;16.22;100.00;97528.91;5074519;28;20414;-69
2023/07/14 04:24:02;;;;;;;4.27;3.57;;;;;;;16.26;100.00;97535.25;5070803;28;20962;-69
2023/07/14 04:26:29;;;;;;;3.67;3.28;;;;;;;16.30;100.00;97526.69;5077642;28;20497;-69
2023/07/14 04:28:55;;;;;;;5.13;3.37;;;;;;;16.34;100.00;97535.72;5070826;28;20762;-69
2023/07/14 04:31:23;;;;;;;4.40;3.42;;;;;;;16.39;100.00;97541.03;5070840;28;20438;-69
2023/07/14 04:33:51;;;;;;;4.97;3.33;;;;;;;16.43;100.00;97544.69;5070510;28;20396;-69
2023/07/14 04:36:17;;;;;;;5.55;3.25;;;;;;;16.46;100.00;97539.59;5074120;28;20402;-69
2023/07/14 04:39:00;;;;;;;4.95;3.20;;;;;;;16.50;100.00;97540.59;5069261;28;20404;-69
2023/07/14 04:41:26;;;;;;;4.47;3.35;;;;;;;16.56;100.00;97536.00;5063206;28;20406;-69
2023/07/14 04:43:53;;;;;;;3.78;3.00;;;;;;;16.60;100.00;97532.50;5062188;28;20412;-69
2023/07/14 04:46:19;;;;;;;5.35;3.42;;;;;;;16.65;100.00;97526.28;5067596;28;20946;-69
2023/07/14 04:48:48;;;;;;;4.93;3.42;;;;;;;16.67;100.00;97531.38;5067262;28;20466;-68
2023/07/14 04:51:14;;;;;;;6.32;2.92;;;;;;;16.70;100.00;97525.44;5070745;28;20470;-69
2023/07/14 04:53:40;;;;;;;5.63;3.00;;;;;;;16.74;100.00;97532.59;5070560;28;20402;-68
2023/07/14 04:56:06;;;;;;;5.18;3.45;;;;;;;16.80;100.00;97533.31;5071061;28;20411;-68
2023/07/14 04:58:33;;;;;;;6.68;3.00;;;;;;;16.83;100.00;97522.88;5070492;28;20416;-68
2023/07/14 05:01:01;;;;;;;4.82;3.30;;;;;;;16.89;100.00;97523.59;5070495;28;20437;-67
2023/07/14 05:03:28;;;;;;;4.85;3.08;;;;;;;16.95;100.00;97525.09;5065526;28;20414;-67
2023/07/14 05:05:56;;;;;;;3.15;2.85;;;;;;;17.03;100.00;97527.13;5061957;28;20408;-67
2023/07/14 05:08:22;;;;;;;4.60;2.90;;;;;;;17.10;100.00;97524.09;5070324;28;20883;-67
2023/07/14 05:10:48;;;;;;;4.43;3.05;;;;;;;17.12;100.00;97522.72;5047365;28;20430;-68
2023/07/14 05:13:15;;;;;;;4.53;3.30;;;;;;;17.15;100.00;97526.69;5041071;28;20937;-68
2023/07/14 05:15:45;;;;;;;4.90;3.20;;;;;;;17.20;100.00;97523.97;5064727;28;20886;-68
2023/07/14 05:18:12;;;;;;;6.55;3.17;;;;;;;17.26;100.00;97515.56;5059334;28;20838;-68
2023/07/14 05:20:41;;;;;;;4.45;3.00;;;;;;;17.32;100.00;97514.41;5058954;28;20396;-68
2023/07/14 05:23:10;;;;;;;5.90;3.20;;;;;;;17.38;100.00;97518.59;5062708;28;20423;-68
2023/07/14 05:25:37;;;;;;;4.15;2.88;;;;;;;17.41;100.00;97519.88;5063673;28;20404;-68
2023/07/14 05:28:04;;;;;;;3.30;3.00;;;;;;;17.45;100.00;97514.72;5063870;28;20444;-69
2023/07/14 05:30:30;;;;;;;4.93;3.53;;;;;;;17.49;100.00;97513.88;5063791;28;20433;-68
2023/07/14 05:32:57;;;;;;;3.33;2.83;;;;;;;17.56;100.00;97516.19;5065279;28;20434;-69
2023/07/14 05:35:24;;;;;;;2.78;2.50;;;;;;;17.61;100.00;97511.56;5046540;28;20431;-69
2023/07/14 05:37:51;;;;;;;4.40;2.85;;;;;;;17.70;100.00;97528.53;5065886;28;20402;-69
2023/07/14 05:40:18;;;;;;;4.20;2.90;;;;;;;17.78;100.00;97529.75;5067034;28;20911;-69
2023/07/14 05:42:44;;;;;;;3.72;2.80;;;;;;;17.86;100.00;97525.63;5079178;28;20781;-69
2023/07/14 05:45:12;;;;;;;3.40;2.73;;;;;;;17.92;100.00;97530.59;5073445;28;20831;-69
2023/07/14 05:47:41;;;;;;;4.15;2.60;;;;;;;17.97;100.00;97532.38;5072905;28;20884;-68
2023/07/14 05:50:07;;;;;;;3.15;2.53;;;;;;;18.04;100.00;97522.84;5073207;28;20812;-70
2023/07/14 05:52:34;;;;;;;3.05;2.72;;;;;;;18.11;100.00;97522.50;5073112;28;20404;-68
2023/07/14 05:55:00;;;;;;;3.07;2.50;;;;;;;18.18;100.00;97509.50;5073175;28;20994;-69
2023/07/14 05:57:28;;;;;;;3.55;2.60;;;;;;;18.24;100.00;97518.22;5077063;28;20434;-69
2023/07/14 05:59:54;;;;;;;4.35;2.70;;;;;;;18.26;100.00;97516.06;5073227;28;20406;-69
2023/07/14 06:02:20;;;;;;;4.63;2.80;;;;;;;18.27;100.00;97520.34;5072851;28;20502;-70
2023/07/14 06:04:46;;;;;;;3.70;2.80;;;;;;;18.28;100.00;97516.53;5072832;28;20492;-69
2023/07/14 06:07:13;;;;;;;3.70;2.50;;;;;;;18.29;100.00;97508.19;5075963;28;20784;-69
2023/07/14 06:09:41;;;;;;;3.38;2.28;;;;;;;18.28;100.00;97503.94;5072901;28;20754;-69
2023/07/14 06:12:09;;;;;;;3.50;2.53;;;;;;;18.26;100.00;97508.81;5072707;28;20439;-69
2023/07/14 06:14:38;;;;;;;3.53;2.80;;;;;;;18.25;100.00;97509.91;5079483;28;20409;-69
2023/07/14 06:17:08;;;;;;;3.72;2.63;;;;;;;18.26;100.00;97505.34;5067996;28;20431;-69
2023/07/14 06:19:36;;;;;;;5.30;2.85;;;;;;;18.24;100.00;97505.63;5072799;28;20492;-69
2023/07/14 06:22:04;;;;;;;3.67;2.80;;;;;;;18.23;100.00;97496.00;5072810;28;20404;-69
2023/07/14 06:24:30;;;;;;;3.88;2.55;;;;;;;18.26;100.00;97494.63;5069810;28;20484;-69
2023/07/14 06:26:56;;;;;;;4.03;3.03;;;;;;;18.29;100.00;97489.44;5072889;28;20415;-69
2023/07/14 06:29:22;;;;;;;5.55;3.10;;;;;;;18.31;100.00;97487.28;5072983;28;20457;-69
2023/07/14 06:31:50;;;;;;;5.43;3.00;;;;;;;18.31;100.00;97489.16;5065438;28;20407;-69
2023/07/14 06:34:16;;;;;;;6.13;3.10;;;;;;;18.13;100.00;97480.91;5070680;28;20469;-69
2023/07/14 06:36:42;;;;;;;6.07;3.03;;;;;;;18.27;100.00;97483.56;5071217;28;20410;-69
2023/07/14 06:39:08;;;;;;;5.32;2.92;;;;;;;18.36;100.00;97481.00;5078034;28;20407;-69
2023/07/14 06:41:36;;;;;;;3.88;2.63;;;;;;;18.41;100.00;97486.28;5055195;28;20411;-69
2023/07/14 06:44:02;;;;;;;6.40;2.93;;;;;;;18.45;100.00;97485.38;5072111;28;20812;-69
2023/07/14 06:46:29;;;;;;;6.15;2.45;;;;;;;18.48;100.00;97479.44;5071228;28;20415;-69
2023/07/14 06:48:58;;;;;;;5.93;2.40;;;;;;;18.61;100.00;97469.81;5071606;28;20474;-69
2023/07/14 06:51:25;;;;;;;3.90;2.17;;;;;;;18.71;100.00;97468.81;5071921;28;20408;-69
2023/07/14 06:53:51;;;;;;;4.37;2.63;;;;;;;18.65;100.00;97468.09;5071901;28;20407;-69
2023/07/14 06:56:17;;;;;;;3.45;2.05;;;;;;;18.72;100.00;97468.47;5072047;28;20561;-68
2023/07/14 06:58:43;;;;;;;4.55;2.40;;;;;;;18.75;100.00;97475.13;5071820;28;20487;-68
2023/07/14 07:01:10;;;;;;;4.85;2.35;;;;;;;18.68;100.00;97472.06;5070853;28;20399;-68
2023/07/14 07:03:36;;;;;;;4.75;2.30;;;;;;;18.74;100.00;97466.28;5070632;28;20460;-69
2023/07/14 07:06:03;;;;;;;3.85;2.13;;;;;;;18.86;100.00;97455.06;5070501;28;20807;-69
2023/07/14 07:08:29;;;;;;;4.30;2.22;;;;;;;18.99;100.00;97448.84;5071610;28;20403;-69
2023/07/14 07:10:56;;;;;;;2.85;2.25;;;;;;;19.10;100.00;97449.38;5071602;28;20407;-69
2023/07/14 07:13:22;;;;;;;8.77;2.70;;;;;;;19.09;100.00;97450.50;5071254;28;20475;-69
2023/07/14 07:15:48;;;;;;;5.90;2.40;;;;;;;19.21;100.00;97454.22;5071628;28;20403;-69
2023/07/14 07:18:14;;;;;;;6.25;2.22;;;;;;;19.22;100.00;97455.81;5071025;28;20399;-69
2023/07/14 07:20:42;;;;;;;8.50;2.15;;;;;;;19.28;100.00;97453.78;5071516;28;20402;-69
2023/07/14 07:23:10;;;;;;;3.00;2.10;;;;;;;19.34;100.00;97445.31;5071282;28;20416;-69
2023/07/14 07:25:37;;;;;;;3.35;2.00;;;;;;;19.31;100.00;97445.16;5070848;28;20404;-69
2023/07/14 07:28:04;;;;;;;3.15;2.03;;;;;;;19.39;100.00;97439.03;5071712;28;20411;-69
2023/07/14 07:30:34;;;;;;;6.65;2.60;;;;;;;19.37;100.00;97446.59;5072058;28;20419;-68
2023/07/14 07:33:00;;;;;;;5.35;2.10;;;;;;;19.52;100.00;97442.78;5071593;28;20392;-69
2023/07/14 07:35:27;;;;;;;5.10;2.00;;;;;;;19.51;100.00;97444.66;5071033;28;20431;-68
2023/07/14 07:37:53;;;;;;;4.43;1.73;;;;;;;19.66;100.00;97441.59;5071449;28;20780;-69
2023/07/14 07:40:21;;;;;;;3.63;1.90;;;;;;;19.74;100.00;97436.56;5071077;28;20404;-69
2023/07/14 07:42:47;;;;;;;3.22;1.98;;;;;;;19.77;100.00;97441.34;5071005;28;20516;-69
2023/07/14 07:45:16;;;;;;;3.35;1.90;;;;;;;19.88;100.00;97443.44;5070796;28;20408;-69
2023/07/14 07:47:42;;;;;;;3.60;2.08;;;;;;;19.89;100.00;97439.66;5071096;28;20391;-69
2023/07/14 07:50:09;;;;;;;4.57;2.47;;;;;;;19.91;100.00;97442.03;5070351;28;20494;-69
2023/07/14 07:52:35;;;;;;;4.70;2.00;;;;;;;20.00;100.00;97429.41;5074625;28;20412;-69
2023/07/14 07:55:01;;;;;;;4.50;2.08;;;;;;;20.02;100.00;97437.97;5082588;28;20469;-69
2023/07/14 07:57:29;;;;;;;5.68;1.80;;;;;;;20.06;100.00;97428.97;5070917;28;20396;-69
2023/07/14 07:59:55;;;;;;;2.53;1.70;;;;;;;20.15;100.00;97429.00;5070646;28;20411;-69
2023/07/14 08:02:21;;;;;;;3.90;2.00;;;;;;;20.21;100.00;97421.59;5070837;28;20419;-69
2023/07/14 08:04:49;;;;;;;2.80;1.55;;;;;;;20.26;100.00;97421.44;5070580;28;20411;-69
2023/07/14 08:07:16;;;;;;;3.13;1.90;;;;;;;20.35;100.00;97420.41;5070700;28;20398;-68
2023/07/14 08:09:43;;;;;;;2.80;1.67;;;;;;;20.45;100.00;97422.78;5070587;28;20778;-68
2023/07/14 08:12:10;;;;;;;4.13;1.60;;;;;;;20.56;100.00;97419.78;5081889;28;20479;-68
2023/07/14 08:14:50;;;;;;;4.47;1.95;;;;;;;20.63;100.00;97415.53;5052867;28;20416;-69
2023/07/14 08:17:16;;;;;;;2.60;1.50;;;;;;;20.75;100.00;97407.63;5070480;28;20392;-69
2023/07/14 08:19:45;;;;;;;3.45;1.60;;;;;;;20.77;100.00;97394.66;5070410;28;20410;-68
2023/07/14 08:22:11;;;;;;;2.47;1.50;;;;;;;20.95;100.00;97400.03;5073561;28;20410;-69
2023/07/14 08:24:37;;;;;;;3.63;1.83;;;;;;;21.09;100.00;97409.53;5070998;28;20427;-69
2023/07/14 08:27:04;;;;;;;2.53;1.70;;;;;;;21.21;100.00;97409.69;5066724;28;20458;-69
2023/07/14 08:29:30;;;;;;;2.53;1.50;;;;;;;21.33;100.00;97410.94;5068808;28;20494;-69
2023/07/14 08:31:57;;;;;;;4.18;1.70;;;;;;;21.52;100.00;97412.16;5074816;28;20408;-69
2023/07/14 08:34:27;;;;;;;8.63;2.03;;;;;;;21.43;99.05;97402.50;5076435;28;20889;-69
2023/07/14 08:36:53;;;;;;;6.82;2.03;;;;;;;21.37;95.63;97406.50;5073171;28;20419;-68
2023/07/14 08:39:19;;;;;;;5.13;2.20;;;;;;;21.23;85.81;97406.69;5076548;28;20536;-69
2023/07/14 08:41:50;;;;;;;2.88;1.45;;;;;;;21.46;100.00;97396.50;5052091;28;20469;-69
2023/07/14 08:44:31;;;;;;;3.70;1.90;;;;;;;21.61;100.00;97395.97;5062669;28;20928;-68
2023/07/14 08:47:07;;;;;;;6.03;1.70;;;;;;;21.73;100.00;97387.22;5070401;28;20411;-68
2023/07/14 08:49:48;;;;;;;4.55;1.70;;;;;;;21.83;100.00;97387.66;5070229;28;20818;-69
2023/07/14 08:52:21;;;;;;;2.97;1.55;;;;;;;21.93;100.00;97391.91;5068472;28;20395;-69
2023/07/14 08:54:51;;;;;;;5.45;1.70;;;;;;;21.95;100.00;97387.75;5062332;28;20406;-70
2023/07/14 08:57:21;;;;;;;4.25;1.70;;;;;;;21.90;99.14;97384.47;5072013;28;20413;-69
2023/07/14 08:59:50;;;;;;;2.33;1.48;;;;;;;22.05;100.00;97383.16;5072920;28;20439;-69
2023/07/14 09:02:23;;;;;;;7.15;1.90;;;;;;;22.15;98.02;97374.69;5073393;28;20419;-70
2023/07/14 09:04:58;;;;;;;4.80;1.70;;;;;;;22.26;100.00;97371.28;5069622;28;20399;-69
2023/07/14 09:07:24;;;;;;;3.25;1.48;;;;;;;22.39;89.38;97377.56;5069848;28;20406;-69
2023/07/14 09:09:50;;;;;;;1.97;1.50;;;;;;;22.43;100.00;97385.78;5069978;28;20889;-69
2023/07/14 09:12:23;;;;;;;6.50;1.92;;;;;;;22.36;85.36;97383.59;5073615;28;20420;-70
2023/07/14 09:14:56;;;;;;;5.30;1.90;;;;;;;22.25;88.38;97379.72;5064292;28;20493;-70
2023/07/14 09:17:42;;;;;;;2.65;1.48;;;;;;;22.24;92.22;97380.84;5069822;28;20453;-70
2023/07/14 09:20:35;;;;;;;3.70;1.60;;;;;;;22.26;100.00;97376.69;5077247;28;20462;-70
2023/07/14 09:23:16;;;;;;;3.63;1.70;;;;;;;22.30;100.00;97374.94;5064001;28;20442;-69
2023/07/14 09:25:53;;;;;;;4.50;1.50;;;;;;;22.33;100.00;97376.94;5069480;28;20803;-69
2023/07/14 09:28:25;;;;;;;4.07;1.73;;;;;;;22.37;100.00;97374.41;5069640;28;20409;-69
2023/07/14 09:30:53;;;;;;;3.63;2.00;;;;;;;22.41;100.00;97367.22;5055207;28;20822;-69
2023/07/14 09:33:21;;;;;;;2.60;1.50;;;;;;;22.56;100.00;97377.44;5076039;28;20445;-69
2023/07/14 09:35:49;;;;;;;2.80;1.43;;;;;;;22.64;100.00;97363.09;5069968;28;20501;-69
2023/07/14 09:38:22;;;;;;;2.38;1.50;;;;;;;22.76;100.00;97371.28;5069485;28;20407;-70
2023/07/14 09:40:56;;;;;;;3.88;1.80;;;;;;;22.79;100.00;97369.81;5067406;28;20404;-68
2023/07/14 09:43:22;;;;;;;3.08;1.75;;;;;;;23.02;96.14;97362.16;5069420;28;20415;-71
2023/07/14 09:45:54;;;;;;;5.63;2.05;;;;;;;22.79;90.56;97356.31;5070098;28;20476;-70
2023/07/14 09:48:26;;;;;;;4.47;1.60;;;;;;;22.80;98.75;97365.22;5069383;28;20403;-70
2023/07/14 09:50:58;;;;;;;1.70;1.30;;;;;;;22.75;100.00;97360.81;5069236;28;20478;-69
2023/07/14 09:53:24;;;;;;;2.50;1.70;;;;;;;22.77;100.00;97358.59;5069051;28;20461;-69
2023/07/14 09:55:55;;;;;;;2.40;1.60;;;;;;;22.82;100.00;97354.88;5072135;28;20451;-69
2023/07/14 09:58:23;;;;;;;3.72;1.70;;;;;;;22.77;100.00;97362.09;5051376;28;20399;-68
2023/07/14 10:00:51;;;;;;;2.35;1.50;;;;;;;22.79;100.00;97350.94;5073313;28;20458;-69
2023/07/14 10:03:19;;;;;;;2.80;1.50;;;;;;;22.70;100.00;97353.66;5068054;28;20519;-69
2023/07/14 10:05:52;;;;;;;7.18;2.13;;;;;;;22.58;100.00;97350.91;5050675;28;20407;-69
2023/07/14 10:08:33;;;;;;;3.58;1.50;;;;;;;22.67;100.00;97345.47;5069357;28;20494;-70
2023/07/14 10:11:19;;;;;;;4.00;2.05;;;;;;;22.58;100.00;97342.81;5071424;28;20469;-70
2023/07/14 10:13:49;;;;;;;8.87;1.93;;;;;;;22.55;96.33;97338.09;5072227;28;20445;-70
2023/07/14 10:16:19;;;;;;;4.28;1.60;;;;;;;22.63;100.00;97334.53;5072659;28;20407;-70
2023/07/14 10:18:51;;;;;;;2.13;1.57;;;;;;;22.69;100.00;97340.53;5064629;28;20753;-70
2023/07/14 10:21:27;;;;;;;2.80;1.50;;;;;;;22.83;100.00;97337.56;5063988;28;20478;-69
2023/07/14 10:24:04;;;;;;;1.83;1.30;;;;;;;22.90;100.00;97338.63;5070515;28;20968;-69
2023/07/14 10:26:34;;;;;;;1.92;1.30;;;;;;;22.94;100.00;97328.72;5070784;28;20406;-68
2023/07/14 10:29:03;;;;;;;3.58;1.92;;;;;;;22.92;100.00;97331.00;5071619;28;20889;-68
2023/07/14 10:31:36;;;;;;;3.50;1.50;;;;;;;23.06;100.00;97326.09;5053848;28;20439;-68
2023/07/14 10:34:24;;;;;;;4.10;1.60;;;;;;;23.05;100.00;97321.81;5066346;28;20399;-68
2023/07/14 10:36:57;;;;;;;1.40;1.30;;;;;;;23.16;100.00;97331.03;5065246;28;20403;-68
2023/07/14 10:39:36;;;;;;;1.60;1.33;;;;;;;23.31;100.00;97320.72;5080406;28;20508;-67
2023/07/14 10:42:08;;;;;;;2.45;1.42;;;;;;;23.43;100.00;97315.34;5069634;28;20937;-67
2023/07/14 10:44:38;;;;;;;4.32;1.98;;;;;;;23.36;100.00;97318.63;5072678;28;20491;-69
2023/07/14 10:47:12;;;;;;;2.22;1.55;;;;;;;23.55;100.00;97320.78;5072734;28;20405;-69
2023/07/14 10:49:45;;;;;;;1.52;1.42;;;;;;;23.65;100.00;97316.88;5076919;28;20403;-68
2023/07/14 10:52:17;;;;;;;2.25;1.40;;;;;;;23.75;100.00;97311.81;5072477;28;20861;-68
2023/07/14 10:54:49;;;;;;;1.65;1.10;;;;;;;23.86;100.00;97310.22;5063975;28;20415;-68
2023/07/14 10:57:33;;;;;;;1.70;1.20;;;;;;;23.92;100.00;97308.06;5078597;28;20446;-69
2023/07/14 11:00:08;;;;;;;2.45;1.50;;;;;;;23.89;100.00;97319.56;5069272;28;20426;-69
2023/07/14 11:02:41;;;;;;;3.13;1.52;;;;;;;23.90;100.00;97313.03;5072905;28;20919;-68
2023/07/14 11:05:14;;;;;;;1.95;1.50;;;;;;;23.91;100.00;97301.06;5070991;28;20482;-68
2023/07/14 11:07:41;;;;;;;3.22;1.70;;;;;;;23.87;100.00;97306.38;5078523;28;20407;-68
2023/07/14 11:10:18;;;;;;;3.10;1.90;;;;;;;23.78;100.00;97300.31;5068566;28;20467;-68
2023/07/14 11:12:52;;;;;;;4.15;1.50;;;;;;;23.66;100.00;97304.94;5063565;28;20392;-68
2023/07/14 11:15:23;;;;;;;3.53;1.70;;;;;;;23.96;92.28;97297.38;5071436;28;20396;-68
2023/07/14 11:17:58;;;;;;;4.20;2.00;;;;;;;23.95;89.68;97291.19;5071838;28;20430;-69
2023/07/14 11:20:31;;;;;;;4.63;1.60;;;;;;;23.85;94.54;97287.00;5074620;28;20546;-69
2023/07/14 11:23:23;;;;;;;2.70;1.60;;;;;;;23.82;100.00;97287.69;5071469;28;20416;-69
2023/07/14 11:25:59;;;;;;;2.60;1.52;;;;;;;23.85;100.00;97286.22;5080308;28;20769;-69
2023/07/14 11:28:35;;;;;;;1.25;1.10;;;;;;;23.96;100.00;97281.16;5070942;28;20421;-69
2023/07/14 11:31:05;;;;;;;2.10;1.17;;;;;;;24.08;100.00;97284.63;5065682;28;20444;-69
2023/07/14 11:33:39;;;;;;;2.60;1.55;;;;;;;24.25;100.00;97280.91;5070474;28;20492;-69
2023/07/14 11:36:11;;;;;;;4.18;2.08;;;;;;;24.14;93.76;97275.13;5066102;28;21297;-68